sensor_id;sensor_type;location;lat;lon;timestamp;temperature;humidity
74534;SHT31;63012;51.096;-115.366;2022-12-08T00:01:23;-1.68;66.12
74534;SHT31;63012;51.096;-115.366;2022-12-08T00:03:53;-1.74;66.30
74534;SHT31;63012;51.096;-115.366;2022-12-08T00:06:30;-1.75;66.12
74534;SHT31;63012;51.096;-115.366;2022-12-08T00:09:27;-1.78;66.04
74534;SHT31;63012;51.096;-115.366;2022-12-08T00:12:07;-1.77;66.16
74534;SHT31;63012;51.096;-115.366;2022-12-08T00:14:39;-1.77;65.77
74534;SHT31;63012;51.096;-115.366;2022-12-08T00:17:10;-1.75;65.60
74534;SHT31;63012;51.096;-115.366;2022-12-08T00:19:40;-1.75;65.55
74534;SHT31;63012;51.096;-115.366;2022-12-08T00:22:08;-1.77;65.72
74534;SHT31;63012;51.096;-115.366;2022-12-08T00:24:38;-1.81;65.95
74534;SHT31;63012;51.096;-115.366;2022-12-08T00:27:06;-1.85;66.14
74534;SHT31;63012;51.096;-115.366;2022-12-08T00:29:36;-1.86;65.72
74534;SHT31;63012;51.096;-115.366;2022-12-08T00:32:04;-1.83;64.96
74534;SHT31;63012;51.096;-115.366;2022-12-08T00:34:31;-1.83;65.02
74534;SHT31;63012;51.096;-115.366;2022-12-08T00:36:59;-1.84;65.63
74534;SHT31;63012;51.096;-115.366;2022-12-08T00:39:26;-1.88;65.68
74534;SHT31;63012;51.096;-115.366;2022-12-08T00:41:53;-1.91;65.54
74534;SHT31;63012;51.096;-115.366;2022-12-08T00:44:40;-1.93;65.42
74534;SHT31;63012;51.096;-115.366;2022-12-08T00:47:10;-1.94;65.14
74534;SHT31;63012;51.096;-115.366;2022-12-08T00:49:39;-1.94;65.34
74534;SHT31;63012;51.096;-115.366;2022-12-08T00:52:06;-1.97;65.43
74534;SHT31;63012;51.096;-115.366;2022-12-08T00:54:33;-1.96;64.78
74534;SHT31;63012;51.096;-115.366;2022-12-08T00:57:01;-1.96;64.64
74534;SHT31;63012;51.096;-115.366;2022-12-08T00:59:28;-1.94;64.44
74534;SHT31;63012;51.096;-115.366;2022-12-08T01:01:55;-1.96;64.87
74534;SHT31;63012;51.096;-115.366;2022-12-08T01:04:22;-1.97;64.68
74534;SHT31;63012;51.096;-115.366;2022-12-08T01:06:50;-1.99;64.73
74534;SHT31;63012;51.096;-115.366;2022-12-08T01:09:17;-2.00;64.91
74534;SHT31;63012;51.096;-115.366;2022-12-08T01:11:44;-2.05;65.41
74534;SHT31;63012;51.096;-115.366;2022-12-08T01:14:11;-2.09;65.23
74534;SHT31;63012;51.096;-115.366;2022-12-08T01:16:39;-2.09;65.27
74534;SHT31;63012;51.096;-115.366;2022-12-08T01:19:08;-2.15;65.79
74534;SHT31;63012;51.096;-115.366;2022-12-08T01:21:40;-2.20;65.68
74534;SHT31;63012;51.096;-115.366;2022-12-08T01:24:12;-2.19;65.34
74534;SHT31;63012;51.096;-115.366;2022-12-08T01:26:43;-2.19;65.35
74534;SHT31;63012;51.096;-115.366;2022-12-08T01:29:11;-2.21;65.77
74534;SHT31;63012;51.096;-115.366;2022-12-08T01:31:39;-2.26;65.92
74534;SHT31;63012;51.096;-115.366;2022-12-08T01:34:06;-2.30;66.01
74534;SHT31;63012;51.096;-115.366;2022-12-08T01:36:35;-2.34;66.20
74534;SHT31;63012;51.096;-115.366;2022-12-08T01:39:03;-2.35;66.27
74534;SHT31;63012;51.096;-115.366;2022-12-08T01:41:34;-2.41;66.44
74534;SHT31;63012;51.096;-115.366;2022-12-08T01:46:37;-2.47;66.32
74534;SHT31;63012;51.096;-115.366;2022-12-08T01:49:21;-2.45;66.29
74534;SHT31;63012;51.096;-115.366;2022-12-08T01:52:04;-2.44;66.32
74534;SHT31;63012;51.096;-115.366;2022-12-08T01:54:44;-2.41;66.03
74534;SHT31;63012;51.096;-115.366;2022-12-08T01:57:22;-2.42;66.21
74534;SHT31;63012;51.096;-115.366;2022-12-08T02:00:10;-2.43;66.38
74534;SHT31;63012;51.096;-115.366;2022-12-08T02:05:33;-2.49;66.62
74534;SHT31;63012;51.096;-115.366;2022-12-08T02:08:06;-2.50;66.77
74534;SHT31;63012;51.096;-115.366;2022-12-08T02:10:41;-2.51;66.71
74534;SHT31;63012;51.096;-115.366;2022-12-08T02:13:10;-2.48;66.20
74534;SHT31;63012;51.096;-115.366;2022-12-08T02:15:44;-2.43;65.92
74534;SHT31;63012;51.096;-115.366;2022-12-08T02:21:41;-2.42;65.72
74534;SHT31;63012;51.096;-115.366;2022-12-08T02:24:36;-2.40;65.61
74534;SHT31;63012;51.096;-115.366;2022-12-08T02:27:27;-2.40;65.64
74534;SHT31;63012;51.096;-115.366;2022-12-08T02:34:10;-2.46;65.91
74534;SHT31;63012;51.096;-115.366;2022-12-08T02:37:01;-2.49;66.08
74534;SHT31;63012;51.096;-115.366;2022-12-08T02:42:57;-2.51;65.90
74534;SHT31;63012;51.096;-115.366;2022-12-08T02:45:33;-2.55;66.28
74534;SHT31;63012;51.096;-115.366;2022-12-08T02:48:13;-2.59;66.12
74534;SHT31;63012;51.096;-115.366;2022-12-08T02:50:40;-2.59;66.11
74534;SHT31;63012;51.096;-115.366;2022-12-08T02:53:08;-2.61;66.21
74534;SHT31;63012;51.096;-115.366;2022-12-08T02:55:39;-2.61;66.03
74534;SHT31;63012;51.096;-115.366;2022-12-08T03:05:02;-2.63;66.11
74534;SHT31;63012;51.096;-115.366;2022-12-08T03:10:50;-2.62;65.91
74534;SHT31;63012;51.096;-115.366;2022-12-08T03:13:33;-2.57;65.21
74534;SHT31;63012;51.096;-115.366;2022-12-08T03:16:10;-2.53;65.34
74534;SHT31;63012;51.096;-115.366;2022-12-08T03:18:44;-2.49;65.18
74534;SHT31;63012;51.096;-115.366;2022-12-08T03:21:18;-2.48;65.45
74534;SHT31;63012;51.096;-115.366;2022-12-08T03:23:47;-2.49;65.50
74534;SHT31;63012;51.096;-115.366;2022-12-08T03:26:22;-2.47;65.20
74534;SHT31;63012;51.096;-115.366;2022-12-08T03:29:21;-2.46;65.14
74534;SHT31;63012;51.096;-115.366;2022-12-08T03:31:53;-2.45;65.09
74534;SHT31;63012;51.096;-115.366;2022-12-08T03:34:31;-2.43;64.78
74534;SHT31;63012;51.096;-115.366;2022-12-08T03:37:00;-2.38;64.62
74534;SHT31;63012;51.096;-115.366;2022-12-08T03:39:27;-2.36;64.50
74534;SHT31;63012;51.096;-115.366;2022-12-08T03:41:55;-2.33;64.41
74534;SHT31;63012;51.096;-115.366;2022-12-08T03:44:22;-2.31;64.05
74534;SHT31;63012;51.096;-115.366;2022-12-08T03:46:49;-2.26;63.82
74534;SHT31;63012;51.096;-115.366;2022-12-08T03:49:17;-2.22;63.91
74534;SHT31;63012;51.096;-115.366;2022-12-08T03:51:44;-2.25;64.20
74534;SHT31;63012;51.096;-115.366;2022-12-08T03:54:11;-2.30;64.51
74534;SHT31;63012;51.096;-115.366;2022-12-08T03:56:38;-2.30;64.10
74534;SHT31;63012;51.096;-115.366;2022-12-08T03:59:06;-2.28;63.90
74534;SHT31;63012;51.096;-115.366;2022-12-08T04:01:33;-2.29;64.09
74534;SHT31;63012;51.096;-115.366;2022-12-08T04:04:01;-2.33;64.61
74534;SHT31;63012;51.096;-115.366;2022-12-08T04:06:28;-2.36;64.62
74534;SHT31;63012;51.096;-115.366;2022-12-08T04:08:55;-2.37;64.25
74534;SHT31;63012;51.096;-115.366;2022-12-08T04:11:22;-2.38;64.50
74534;SHT31;63012;51.096;-115.366;2022-12-08T04:13:50;-2.36;64.18
74534;SHT31;63012;51.096;-115.366;2022-12-08T04:16:18;-2.37;64.28
74534;SHT31;63012;51.096;-115.366;2022-12-08T04:18:50;-2.37;64.25
74534;SHT31;63012;51.096;-115.366;2022-12-08T04:21:18;-2.36;64.22
74534;SHT31;63012;51.096;-115.366;2022-12-08T04:23:45;-2.36;64.16
74534;SHT31;63012;51.096;-115.366;2022-12-08T04:26:13;-2.35;64.13
74534;SHT31;63012;51.096;-115.366;2022-12-08T04:28:41;-2.34;63.76
74534;SHT31;63012;51.096;-115.366;2022-12-08T04:31:08;-2.31;63.79
74534;SHT31;63012;51.096;-115.366;2022-12-08T04:33:35;-2.31;63.68
74534;SHT31;63012;51.096;-115.366;2022-12-08T04:36:03;-2.29;63.61
74534;SHT31;63012;51.096;-115.366;2022-12-08T04:38:31;-2.27;63.38
74534;SHT31;63012;51.096;-115.366;2022-12-08T04:40:59;-2.27;63.75
74534;SHT31;63012;51.096;-115.366;2022-12-08T04:43:27;-2.29;63.60
74534;SHT31;63012;51.096;-115.366;2022-12-08T04:45:55;-2.31;64.03
74534;SHT31;63012;51.096;-115.366;2022-12-08T04:48:22;-2.32;63.57
74534;SHT31;63012;51.096;-115.366;2022-12-08T04:50:49;-2.32;63.98
74534;SHT31;63012;51.096;-115.366;2022-12-08T04:53:16;-2.33;64.03
74534;SHT31;63012;51.096;-115.366;2022-12-08T04:55:44;-2.34;63.80
74534;SHT31;63012;51.096;-115.366;2022-12-08T04:58:15;-2.33;63.97
74534;SHT31;63012;51.096;-115.366;2022-12-08T05:00:44;-2.34;63.90
74534;SHT31;63012;51.096;-115.366;2022-12-08T05:03:12;-2.35;64.01
74534;SHT31;63012;51.096;-115.366;2022-12-08T05:05:40;-2.38;63.88
74534;SHT31;63012;51.096;-115.366;2022-12-08T05:08:08;-2.36;63.92
74534;SHT31;63012;51.096;-115.366;2022-12-08T05:10:36;-2.38;64.06
74534;SHT31;63012;51.096;-115.366;2022-12-08T05:13:03;-2.37;63.94
74534;SHT31;63012;51.096;-115.366;2022-12-08T05:15:30;-2.37;64.12
74534;SHT31;63012;51.096;-115.366;2022-12-08T05:17:57;-2.38;64.04
74534;SHT31;63012;51.096;-115.366;2022-12-08T05:20:25;-2.43;64.32
74534;SHT31;63012;51.096;-115.366;2022-12-08T05:22:53;-2.49;64.39
74534;SHT31;63012;51.096;-115.366;2022-12-08T05:25:20;-2.51;64.41
74534;SHT31;63012;51.096;-115.366;2022-12-08T05:27:47;-2.49;64.12
74534;SHT31;63012;51.096;-115.366;2022-12-08T05:30:14;-2.44;63.90
74534;SHT31;63012;51.096;-115.366;2022-12-08T05:32:42;-2.39;63.71
74534;SHT31;63012;51.096;-115.366;2022-12-08T05:35:09;-2.39;63.84
74534;SHT31;63012;51.096;-115.366;2022-12-08T05:37:36;-2.38;63.69
74534;SHT31;63012;51.096;-115.366;2022-12-08T05:40:04;-2.38;63.91
74534;SHT31;63012;51.096;-115.366;2022-12-08T05:42:32;-2.39;63.98
74534;SHT31;63012;51.096;-115.366;2022-12-08T05:44:59;-2.39;63.45
74534;SHT31;63012;51.096;-115.366;2022-12-08T05:47:26;-2.30;63.07
74534;SHT31;63012;51.096;-115.366;2022-12-08T05:49:53;-2.29;63.27
74534;SHT31;63012;51.096;-115.366;2022-12-08T05:52:20;-2.27;63.07
74534;SHT31;63012;51.096;-115.366;2022-12-08T05:54:47;-2.25;62.69
74534;SHT31;63012;51.096;-115.366;2022-12-08T05:57:15;-2.19;62.35
74534;SHT31;63012;51.096;-115.366;2022-12-08T05:59:42;-2.15;62.50
74534;SHT31;63012;51.096;-115.366;2022-12-08T06:02:09;-2.17;62.62
74534;SHT31;63012;51.096;-115.366;2022-12-08T06:04:36;-2.19;63.27
74534;SHT31;63012;51.096;-115.366;2022-12-08T06:07:04;-2.22;62.78
74534;SHT31;63012;51.096;-115.366;2022-12-08T06:09:31;-2.23;63.21
74534;SHT31;63012;51.096;-115.366;2022-12-08T06:11:59;-2.27;63.21
74534;SHT31;63012;51.096;-115.366;2022-12-08T06:14:27;-2.30;63.28
74534;SHT31;63012;51.096;-115.366;2022-12-08T06:16:54;-2.34;63.48
74534;SHT31;63012;51.096;-115.366;2022-12-08T06:19:21;-2.41;63.89
74534;SHT31;63012;51.096;-115.366;2022-12-08T06:21:48;-2.42;63.86
74534;SHT31;63012;51.096;-115.366;2022-12-08T06:24:15;-2.41;63.49
74534;SHT31;63012;51.096;-115.366;2022-12-08T06:26:43;-2.40;63.75
74534;SHT31;63012;51.096;-115.366;2022-12-08T06:29:11;-2.42;63.82
74534;SHT31;63012;51.096;-115.366;2022-12-08T06:31:39;-2.43;63.76
74534;SHT31;63012;51.096;-115.366;2022-12-08T06:34:06;-2.43;63.43
74534;SHT31;63012;51.096;-115.366;2022-12-08T06:36:33;-2.39;63.15
74534;SHT31;63012;51.096;-115.366;2022-12-08T06:39:01;-2.34;62.89
74534;SHT31;63012;51.096;-115.366;2022-12-08T06:41:29;-2.33;63.06
74534;SHT31;63012;51.096;-115.366;2022-12-08T06:43:56;-2.32;63.08
74534;SHT31;63012;51.096;-115.366;2022-12-08T06:46:23;-2.26;61.83
74534;SHT31;63012;51.096;-115.366;2022-12-08T06:48:51;-2.22;62.87
74534;SHT31;63012;51.096;-115.366;2022-12-08T06:51:19;-2.26;63.46
74534;SHT31;63012;51.096;-115.366;2022-12-08T06:53:49;-2.29;63.01
74534;SHT31;63012;51.096;-115.366;2022-12-08T06:56:16;-2.29;62.85
74534;SHT31;63012;51.096;-115.366;2022-12-08T06:58:44;-2.30;63.22
74534;SHT31;63012;51.096;-115.366;2022-12-08T07:01:12;-2.33;63.28
74534;SHT31;63012;51.096;-115.366;2022-12-08T07:03:40;-2.35;63.28
74534;SHT31;63012;51.096;-115.366;2022-12-08T07:06:08;-2.36;63.02
74534;SHT31;63012;51.096;-115.366;2022-12-08T07:08:47;-2.36;63.31
74534;SHT31;63012;51.096;-115.366;2022-12-08T07:11:14;-2.38;63.50
74534;SHT31;63012;51.096;-115.366;2022-12-08T07:13:41;-2.37;62.87
74534;SHT31;63012;51.096;-115.366;2022-12-08T07:16:09;-2.35;63.03
74534;SHT31;63012;51.096;-115.366;2022-12-08T07:18:37;-2.37;63.24
74534;SHT31;63012;51.096;-115.366;2022-12-08T07:21:06;-2.37;62.89
74534;SHT31;63012;51.096;-115.366;2022-12-08T07:23:36;-2.35;62.68
74534;SHT31;63012;51.096;-115.366;2022-12-08T07:26:05;-2.33;62.31
74534;SHT31;63012;51.096;-115.366;2022-12-08T07:28:36;-2.29;62.32
74534;SHT31;63012;51.096;-115.366;2022-12-08T07:31:06;-2.29;62.58
74534;SHT31;63012;51.096;-115.366;2022-12-08T07:33:46;-2.31;62.77
74534;SHT31;63012;51.096;-115.366;2022-12-08T07:36:17;-2.34;63.12
74534;SHT31;63012;51.096;-115.366;2022-12-08T07:38:44;-2.36;63.14
74534;SHT31;63012;51.096;-115.366;2022-12-08T07:41:12;-2.37;62.75
74534;SHT31;63012;51.096;-115.366;2022-12-08T07:43:45;-2.37;62.86
74534;SHT31;63012;51.096;-115.366;2022-12-08T07:46:16;-2.39;62.75
74534;SHT31;63012;51.096;-115.366;2022-12-08T07:48:45;-2.38;62.85
74534;SHT31;63012;51.096;-115.366;2022-12-08T07:51:14;-2.40;62.65
74534;SHT31;63012;51.096;-115.366;2022-12-08T07:53:43;-2.40;62.86
74534;SHT31;63012;51.096;-115.366;2022-12-08T07:56:12;-2.42;62.58
74534;SHT31;63012;51.096;-115.366;2022-12-08T07:58:40;-2.43;62.66
74534;SHT31;63012;51.096;-115.366;2022-12-08T08:01:20;-2.45;62.78
74534;SHT31;63012;51.096;-115.366;2022-12-08T08:03:57;-2.46;62.79
74534;SHT31;63012;51.096;-115.366;2022-12-08T08:06:29;-2.50;63.22
74534;SHT31;63012;51.096;-115.366;2022-12-08T08:08:58;-2.53;63.13
74534;SHT31;63012;51.096;-115.366;2022-12-08T08:11:25;-2.53;62.79
74534;SHT31;63012;51.096;-115.366;2022-12-08T08:13:52;-2.53;62.57
74534;SHT31;63012;51.096;-115.366;2022-12-08T08:16:20;-2.51;62.75
74534;SHT31;63012;51.096;-115.366;2022-12-08T08:18:48;-2.54;63.46
74534;SHT31;63012;51.096;-115.366;2022-12-08T08:21:16;-2.59;63.91
74534;SHT31;63012;51.096;-115.366;2022-12-08T08:23:45;-2.63;63.63
74534;SHT31;63012;51.096;-115.366;2022-12-08T08:26:12;-2.64;63.55
74534;SHT31;63012;51.096;-115.366;2022-12-08T08:28:40;-2.66;63.77
74534;SHT31;63012;51.096;-115.366;2022-12-08T08:31:10;-2.65;63.58
74534;SHT31;63012;51.096;-115.366;2022-12-08T08:33:38;-2.64;63.45
74534;SHT31;63012;51.096;-115.366;2022-12-08T08:36:08;-2.65;63.69
74534;SHT31;63012;51.096;-115.366;2022-12-08T08:38:35;-2.64;63.03
74534;SHT31;63012;51.096;-115.366;2022-12-08T08:41:08;-2.60;63.19
74534;SHT31;63012;51.096;-115.366;2022-12-08T08:43:35;-2.61;63.43
74534;SHT31;63012;51.096;-115.366;2022-12-08T08:46:03;-2.61;63.15
74534;SHT31;63012;51.096;-115.366;2022-12-08T08:48:33;-2.60;63.34
74534;SHT31;63012;51.096;-115.366;2022-12-08T08:51:10;-2.62;63.11
74534;SHT31;63012;51.096;-115.366;2022-12-08T08:53:39;-2.59;63.15
74534;SHT31;63012;51.096;-115.366;2022-12-08T08:56:11;-2.61;63.05
74534;SHT31;63012;51.096;-115.366;2022-12-08T08:58:42;-2.58;62.51
74534;SHT31;63012;51.096;-115.366;2022-12-08T09:01:14;-2.56;62.62
74534;SHT31;63012;51.096;-115.366;2022-12-08T09:03:44;-2.54;62.64
74534;SHT31;63012;51.096;-115.366;2022-12-08T09:06:12;-2.55;62.27
74534;SHT31;63012;51.096;-115.366;2022-12-08T09:08:41;-2.53;62.43
74534;SHT31;63012;51.096;-115.366;2022-12-08T09:11:09;-2.54;62.37
74534;SHT31;63012;51.096;-115.366;2022-12-08T09:13:37;-2.53;62.36
74534;SHT31;63012;51.096;-115.366;2022-12-08T09:16:05;-2.55;62.72
74534;SHT31;63012;51.096;-115.366;2022-12-08T09:18:34;-2.59;63.07
74534;SHT31;63012;51.096;-115.366;2022-12-08T09:21:05;-2.59;62.51
74534;SHT31;63012;51.096;-115.366;2022-12-08T09:23:41;-2.59;62.88
74534;SHT31;63012;51.096;-115.366;2022-12-08T09:26:08;-2.62;63.16
74534;SHT31;63012;51.096;-115.366;2022-12-08T09:28:36;-2.66;62.87
74534;SHT31;63012;51.096;-115.366;2022-12-08T09:31:03;-2.63;62.54
74534;SHT31;63012;51.096;-115.366;2022-12-08T09:33:30;-2.64;63.08
74534;SHT31;63012;51.096;-115.366;2022-12-08T09:36:01;-2.63;62.12
74534;SHT31;63012;51.096;-115.366;2022-12-08T09:38:29;-2.60;62.42
74534;SHT31;63012;51.096;-115.366;2022-12-08T09:40:57;-2.62;62.66
74534;SHT31;63012;51.096;-115.366;2022-12-08T09:46:39;-2.66;62.50
74534;SHT31;63012;51.096;-115.366;2022-12-08T09:49:13;-2.69;63.03
74534;SHT31;63012;51.096;-115.366;2022-12-08T09:51:45;-2.71;62.84
74534;SHT31;63012;51.096;-115.366;2022-12-08T09:54:17;-2.70;62.37
74534;SHT31;63012;51.096;-115.366;2022-12-08T09:56:53;-2.71;62.81
74534;SHT31;63012;51.096;-115.366;2022-12-08T09:59:35;-2.73;62.60
74534;SHT31;63012;51.096;-115.366;2022-12-08T10:02:02;-2.75;62.90
74534;SHT31;63012;51.096;-115.366;2022-12-08T10:04:53;-2.78;62.77
74534;SHT31;63012;51.096;-115.366;2022-12-08T10:07:26;-2.78;62.68
74534;SHT31;63012;51.096;-115.366;2022-12-08T10:10:20;-2.80;62.71
74534;SHT31;63012;51.096;-115.366;2022-12-08T10:13:05;-2.83;62.99
74534;SHT31;63012;51.096;-115.366;2022-12-08T10:18:56;-2.92;63.12
74534;SHT31;63012;51.096;-115.366;2022-12-08T10:21:40;-2.96;63.56
74534;SHT31;63012;51.096;-115.366;2022-12-08T10:24:10;-2.98;63.12
74534;SHT31;63012;51.096;-115.366;2022-12-08T10:26:51;-2.99;63.34
74534;SHT31;63012;51.096;-115.366;2022-12-08T10:29:20;-3.02;63.42
74534;SHT31;63012;51.096;-115.366;2022-12-08T10:31:48;-3.04;63.54
74534;SHT31;63012;51.096;-115.366;2022-12-08T10:34:16;-3.08;63.72
74534;SHT31;63012;51.096;-115.366;2022-12-08T10:36:53;-3.11;63.97
74534;SHT31;63012;51.096;-115.366;2022-12-08T10:44:51;-3.14;63.86
74534;SHT31;63012;51.096;-115.366;2022-12-08T10:47:26;-3.16;63.94
74534;SHT31;63012;51.096;-115.366;2022-12-08T10:52:52;-3.22;64.09
74534;SHT31;63012;51.096;-115.366;2022-12-08T10:55:26;-3.22;63.70
74534;SHT31;63012;51.096;-115.366;2022-12-08T10:58:03;-3.22;64.11
74534;SHT31;63012;51.096;-115.366;2022-12-08T11:00:30;-3.23;63.52
74534;SHT31;63012;51.096;-115.366;2022-12-08T11:03:00;-3.22;63.81
74534;SHT31;63012;51.096;-115.366;2022-12-08T11:05:33;-3.25;63.84
74534;SHT31;63012;51.096;-115.366;2022-12-08T11:08:02;-3.26;63.79
74534;SHT31;63012;51.096;-115.366;2022-12-08T11:10:34;-3.27;63.77
74534;SHT31;63012;51.096;-115.366;2022-12-08T11:13:17;-3.26;63.51
74534;SHT31;63012;51.096;-115.366;2022-12-08T11:15:54;-3.20;62.68
74534;SHT31;63012;51.096;-115.366;2022-12-08T11:18:29;-3.15;62.87
74534;SHT31;63012;51.096;-115.366;2022-12-08T11:21:10;-3.15;62.93
74534;SHT31;63012;51.096;-115.366;2022-12-08T11:23:47;-3.13;62.95
74534;SHT31;63012;51.096;-115.366;2022-12-08T11:26:27;-3.16;63.26
74534;SHT31;63012;51.096;-115.366;2022-12-08T11:28:59;-3.19;63.27
74534;SHT31;63012;51.096;-115.366;2022-12-08T11:34:10;-3.20;63.00
74534;SHT31;63012;51.096;-115.366;2022-12-08T11:36:57;-3.19;62.76
74534;SHT31;63012;51.096;-115.366;2022-12-08T11:39:25;-3.19;62.61
74534;SHT31;63012;51.096;-115.366;2022-12-08T11:41:56;-3.22;62.98
74534;SHT31;63012;51.096;-115.366;2022-12-08T11:44:40;-3.27;63.12
74534;SHT31;63012;51.096;-115.366;2022-12-08T11:47:37;-3.32;63.49
74534;SHT31;63012;51.096;-115.366;2022-12-08T11:52:53;-3.42;63.65
74534;SHT31;63012;51.096;-115.366;2022-12-08T11:58:20;-3.49;63.79
74534;SHT31;63012;51.096;-115.366;2022-12-08T12:00:59;-3.48;63.74
74534;SHT31;63012;51.096;-115.366;2022-12-08T12:03:28;-3.48;63.66
74534;SHT31;63012;51.096;-115.366;2022-12-08T12:15:00;-3.54;63.72
74534;SHT31;63012;51.096;-115.366;2022-12-08T12:21:09;-3.55;63.40
74534;SHT31;63012;51.096;-115.366;2022-12-08T12:29:24;-3.68;64.09
74534;SHT31;63012;51.096;-115.366;2022-12-08T12:31:58;-3.71;64.18
74534;SHT31;63012;51.096;-115.366;2022-12-08T12:37:23;-3.76;64.38
74534;SHT31;63012;51.096;-115.366;2022-12-08T12:40:19;-3.77;64.34
74534;SHT31;63012;51.096;-115.366;2022-12-08T12:58:21;-3.96;64.75
74534;SHT31;63012;51.096;-115.366;2022-12-08T13:03:49;-4.01;65.00
74534;SHT31;63012;51.096;-115.366;2022-12-08T13:06:36;-4.04;64.78
74534;SHT31;63012;51.096;-115.366;2022-12-08T13:09:31;-4.01;64.62
74534;SHT31;63012;51.096;-115.366;2022-12-08T13:12:11;-4.01;64.80
74534;SHT31;63012;51.096;-115.366;2022-12-08T13:14:49;-4.01;64.66
74534;SHT31;63012;51.096;-115.366;2022-12-08T13:17:27;-3.98;64.42
74534;SHT31;63012;51.096;-115.366;2022-12-08T13:19:59;-3.99;64.59
74534;SHT31;63012;51.096;-115.366;2022-12-08T13:25:48;-4.03;64.79
74534;SHT31;63012;51.096;-115.366;2022-12-08T13:28:21;-4.05;64.67
74534;SHT31;63012;51.096;-115.366;2022-12-08T13:30:55;-4.03;64.28
74534;SHT31;63012;51.096;-115.366;2022-12-08T13:34:00;-3.97;64.18
74534;SHT31;63012;51.096;-115.366;2022-12-08T13:36:31;-3.95;64.37
74534;SHT31;63012;51.096;-115.366;2022-12-08T13:39:04;-3.97;64.51
74534;SHT31;63012;51.096;-115.366;2022-12-08T13:41:42;-3.99;64.30
74534;SHT31;63012;51.096;-115.366;2022-12-08T13:44:44;-4.00;64.43
74534;SHT31;63012;51.096;-115.366;2022-12-08T13:47:19;-4.05;64.69
74534;SHT31;63012;51.096;-115.366;2022-12-08T13:50:08;-4.09;64.77
74534;SHT31;63012;51.096;-115.366;2022-12-08T13:52:50;-4.12;64.71
74534;SHT31;63012;51.096;-115.366;2022-12-08T13:55:39;-4.14;64.67
74534;SHT31;63012;51.096;-115.366;2022-12-08T13:58:18;-4.12;64.58
74534;SHT31;63012;51.096;-115.366;2022-12-08T14:01:00;-4.11;64.55
74534;SHT31;63012;51.096;-115.366;2022-12-08T14:04:14;-4.06;64.09
74534;SHT31;63012;51.096;-115.366;2022-12-08T14:06:27;-4.04;64.51
74534;SHT31;63012;51.096;-115.366;2022-12-08T14:09:01;-4.07;64.31
74534;SHT31;63012;51.096;-115.366;2022-12-08T14:11:36;-4.09;64.54
74534;SHT31;63012;51.096;-115.366;2022-12-08T14:16:47;-4.18;64.56
74534;SHT31;63012;51.096;-115.366;2022-12-08T14:19:20;-4.21;64.69
74534;SHT31;63012;51.096;-115.366;2022-12-08T14:24:22;-4.27;64.73
74534;SHT31;63012;51.096;-115.366;2022-12-08T14:26:52;-4.29;64.94
74534;SHT31;63012;51.096;-115.366;2022-12-08T14:32:24;-4.33;64.91
74534;SHT31;63012;51.096;-115.366;2022-12-08T14:35:00;-4.33;64.78
74534;SHT31;63012;51.096;-115.366;2022-12-08T14:37:49;-4.32;64.96
74534;SHT31;63012;51.096;-115.366;2022-12-08T14:45:44;-4.33;64.96
74534;SHT31;63012;51.096;-115.366;2022-12-08T14:48:18;-4.35;65.15
74534;SHT31;63012;51.096;-115.366;2022-12-08T15:01:52;-4.38;65.19
74534;SHT31;63012;51.096;-115.366;2022-12-08T15:04:37;-4.41;65.36
74534;SHT31;63012;51.096;-115.366;2022-12-08T15:07:19;-4.46;65.64
74534;SHT31;63012;51.096;-115.366;2022-12-08T15:10:07;-4.50;65.35
74534;SHT31;63012;51.096;-115.366;2022-12-08T15:12:59;-4.53;65.50
74534;SHT31;63012;51.096;-115.366;2022-12-08T15:15:49;-4.58;65.71
74534;SHT31;63012;51.096;-115.366;2022-12-08T15:18:20;-4.60;65.71
74534;SHT31;63012;51.096;-115.366;2022-12-08T15:21:08;-4.55;65.66
74534;SHT31;63012;51.096;-115.366;2022-12-08T15:23:41;-4.47;65.36
74534;SHT31;63012;51.096;-115.366;2022-12-08T15:26:23;-4.37;65.18
74534;SHT31;63012;51.096;-115.366;2022-12-08T15:28:53;-4.30;65.25
74534;SHT31;63012;51.096;-115.366;2022-12-08T15:31:22;-4.25;64.98
74534;SHT31;63012;51.096;-115.366;2022-12-08T15:33:49;-4.24;64.97
74534;SHT31;63012;51.096;-115.366;2022-12-08T15:36:17;-4.23;64.86
74534;SHT31;63012;51.096;-115.366;2022-12-08T15:38:44;-4.17;64.58
74534;SHT31;63012;51.096;-115.366;2022-12-08T15:41:11;-4.14;64.58
74534;SHT31;63012;51.096;-115.366;2022-12-08T15:43:38;-4.14;64.51
74534;SHT31;63012;51.096;-115.366;2022-12-08T15:46:06;-4.11;64.65
74534;SHT31;63012;51.096;-115.366;2022-12-08T15:48:33;-4.05;64.39
74534;SHT31;63012;51.096;-115.366;2022-12-08T15:51:02;-3.98;64.08
74534;SHT31;63012;51.096;-115.366;2022-12-08T15:53:30;-3.93;63.92
74534;SHT31;63012;51.096;-115.366;2022-12-08T15:55:57;-3.89;63.93
74534;SHT31;63012;51.096;-115.366;2022-12-08T15:58:30;-3.88;63.79
74534;SHT31;63012;51.096;-115.366;2022-12-08T16:00:58;-3.88;63.92
74534;SHT31;63012;51.096;-115.366;2022-12-08T16:03:29;-3.89;63.99
74534;SHT31;63012;51.096;-115.366;2022-12-08T16:05:57;-3.91;63.82
74534;SHT31;63012;51.096;-115.366;2022-12-08T16:08:28;-3.91;63.77
74534;SHT31;63012;51.096;-115.366;2022-12-08T16:10:55;-3.91;63.57
74534;SHT31;63012;51.096;-115.366;2022-12-08T16:13:42;-3.91;63.42
74534;SHT31;63012;51.096;-115.366;2022-12-08T16:16:15;-3.90;63.62
74534;SHT31;63012;51.096;-115.366;2022-12-08T16:18:47;-3.87;63.54
74534;SHT31;63012;51.096;-115.366;2022-12-08T16:21:15;-3.85;63.49
74534;SHT31;63012;51.096;-115.366;2022-12-08T16:23:43;-3.84;63.51
74534;SHT31;63012;51.096;-115.366;2022-12-08T16:26:20;-3.84;63.45
74534;SHT31;63012;51.096;-115.366;2022-12-08T16:28:48;-3.80;63.16
74534;SHT31;63012;51.096;-115.366;2022-12-08T16:31:15;-3.75;62.64
74534;SHT31;63012;51.096;-115.366;2022-12-08T16:33:42;-3.69;62.94
74534;SHT31;63012;51.096;-115.366;2022-12-08T16:36:10;-3.69;63.16
74534;SHT31;63012;51.096;-115.366;2022-12-08T16:38:37;-3.66;62.92
74534;SHT31;63012;51.096;-115.366;2022-12-08T16:41:04;-3.62;62.71
74534;SHT31;63012;51.096;-115.366;2022-12-08T16:43:49;-3.57;62.42
74534;SHT31;63012;51.096;-115.366;2022-12-08T16:46:18;-3.54;62.32
74534;SHT31;63012;51.096;-115.366;2022-12-08T16:48:50;-3.56;62.67
74534;SHT31;63012;51.096;-115.366;2022-12-08T16:51:18;-3.57;62.37
74534;SHT31;63012;51.096;-115.366;2022-12-08T16:53:45;-3.58;62.47
74534;SHT31;63012;51.096;-115.366;2022-12-08T16:56:16;-3.60;62.69
74534;SHT31;63012;51.096;-115.366;2022-12-08T16:58:46;-3.63;62.66
74534;SHT31;63012;51.096;-115.366;2022-12-08T17:01:14;-3.62;62.58
74534;SHT31;63012;51.096;-115.366;2022-12-08T17:03:43;-3.61;62.40
74534;SHT31;63012;51.096;-115.366;2022-12-08T17:06:12;-3.59;62.25
74534;SHT31;63012;51.096;-115.366;2022-12-08T17:08:43;-3.57;62.23
74534;SHT31;63012;51.096;-115.366;2022-12-08T17:11:20;-3.54;62.35
74534;SHT31;63012;51.096;-115.366;2022-12-08T17:13:52;-3.52;62.49